| time (UTC) | temp F | wind direction | speed knots | gust knots | rain 1hr in | rain 24hr in | rain mn in | humidity % | barometer mb |
| 20260503192310 | 54 | 194 | 0.0 | 1.7 | 0.00 | 0.00 | 0.02 | 87 | 1007.2 |
| 20260503191304 | 55 | 194 | 0.0 | 1.7 | 0.00 | 0.00 | 0.02 | 87 | 1007.2 |
| 20260503190259 | 55 | 194 | 1.7 | 2.6 | 0.00 | 0.00 | 0.02 | 87 | 1007.2 |
| 20260503185306 | 55 | 194 | 0.0 | 1.7 | 0.00 | 0.00 | 0.02 | 87 | 1007.0 |
| 20260503184258 | 55 | 194 | 0.9 | 0.9 | 0.00 | 0.00 | 0.02 | 87 | 1006.9 |
| 20260503183314 | 55 | 194 | 0.0 | 3.5 | 0.00 | 0.00 | 0.02 | 87 | 1007.0 |
| 20260503182304 | 55 | 194 | 1.7 | 2.6 | 0.00 | 0.00 | 0.02 | 87 | 1006.9 |
| 20260503181301 | 55 | 194 | 1.7 | 3.5 | 0.00 | 0.00 | 0.02 | 87 | 1006.9 |
| 20260503180318 | 55 | 194 | 1.7 | 3.5 | 0.00 | 0.00 | 0.02 | 87 | 1006.9 |
| 20260503175309 | 56 | 194 | 0.9 | 5.2 | 0.00 | 0.00 | 0.02 | 86 | 1006.9 |
| 20260503174328 | 56 | 194 | 0.0 | 3.5 | 0.00 | 0.00 | 0.02 | 86 | 1006.9 |
| 20260503173303 | 56 | 194 | 0.9 | 3.5 | 0.00 | 0.00 | 0.02 | 86 | 1006.9 |
| 20260503172312 | 56 | 194 | 0.9 | 4.3 | 0.00 | 0.00 | 0.02 | 86 | 1006.9 |
| 20260503171307 | 56 | 194 | 0.9 | 4.3 | 0.00 | 0.00 | 0.02 | 85 | 1006.9 |
| 20260503170319 | 57 | 194 | 0.9 | 4.3 | 0.00 | 0.00 | 0.02 | 86 | 1006.9 |
| 20260503150306 | 58 | 207 | 3.5 | 7.8 | 0.00 | 0.00 | 0.02 | 87 | 1006.7 |
| 20260503140252 | 56 | 198 | 0.0 | 4.3 | 0.00 | 0.00 | 0.02 | 91 | 1006.9 |
| 20260503131312 | 55 | 198 | 3.5 | 5.2 | 0.00 | 0.00 | 0.02 | 93 | 1007.0 |
| 20260503130303 | 55 | 198 | 5.2 | 6.1 | 0.00 | 0.00 | 0.02 | 93 | 1007.0 |
| 20260503110257 | 54 | 53 | 0.9 | 3.5 | 0.00 | 0.00 | 0.02 | 94 | 1007.0 |